sensor_id;sensor_type;location;lat;lon;timestamp;P1;durP1;ratioP1;P2;durP2;ratioP2
26484;SDS011;18083;50.560;7.262;2022-08-21T00:01:18;6.92;;;4.50;;
26484;SDS011;18083;50.560;7.262;2022-08-21T00:03:45;6.60;;;4.58;;
26484;SDS011;18083;50.560;7.262;2022-08-21T00:06:13;7.85;;;4.97;;
26484;SDS011;18083;50.560;7.262;2022-08-21T00:08:40;7.40;;;5.08;;
26484;SDS011;18083;50.560;7.262;2022-08-21T00:11:08;8.10;;;5.03;;
26484;SDS011;18083;50.560;7.262;2022-08-21T00:13:35;7.22;;;4.75;;
26484;SDS011;18083;50.560;7.262;2022-08-21T00:16:02;7.28;;;4.95;;
26484;SDS011;18083;50.560;7.262;2022-08-21T00:18:30;6.75;;;4.62;;
26484;SDS011;18083;50.560;7.262;2022-08-21T00:20:57;6.60;;;4.60;;
26484;SDS011;18083;50.560;7.262;2022-08-21T00:23:25;8.60;;;5.03;;
26484;SDS011;18083;50.560;7.262;2022-08-21T00:25:52;9.20;;;5.30;;
26484;SDS011;18083;50.560;7.262;2022-08-21T00:28:19;7.00;;;4.95;;
26484;SDS011;18083;50.560;7.262;2022-08-21T00:30:47;10.43;;;4.85;;
26484;SDS011;18083;50.560;7.262;2022-08-21T00:33:14;9.68;;;5.00;;
26484;SDS011;18083;50.560;7.262;2022-08-21T00:35:42;9.10;;;4.90;;
26484;SDS011;18083;50.560;7.262;2022-08-21T00:38:10;10.32;;;6.12;;
26484;SDS011;18083;50.560;7.262;2022-08-21T00:40:43;9.50;;;5.42;;
26484;SDS011;18083;50.560;7.262;2022-08-21T00:43:07;8.38;;;5.33;;
26484;SDS011;18083;50.560;7.262;2022-08-21T00:45:35;11.28;;;5.17;;
26484;SDS011;18083;50.560;7.262;2022-08-21T00:48:02;7.87;;;5.62;;
26484;SDS011;18083;50.560;7.262;2022-08-21T00:50:32;5.35;;;4.75;;
26484;SDS011;18083;50.560;7.262;2022-08-21T00:52:59;7.28;;;4.97;;
26484;SDS011;18083;50.560;7.262;2022-08-21T00:55:28;9.30;;;5.10;;
26484;SDS011;18083;50.560;7.262;2022-08-21T00:57:57;8.90;;;5.28;;
26484;SDS011;18083;50.560;7.262;2022-08-21T01:00:26;8.23;;;4.95;;
26484;SDS011;18083;50.560;7.262;2022-08-21T01:02:57;10.40;;;4.80;;
26484;SDS011;18083;50.560;7.262;2022-08-21T01:05:25;11.00;;;5.25;;
26484;SDS011;18083;50.560;7.262;2022-08-21T01:07:53;10.68;;;5.95;;
26484;SDS011;18083;50.560;7.262;2022-08-21T01:10:23;6.80;;;4.50;;
26484;SDS011;18083;50.560;7.262;2022-08-21T01:12:53;5.58;;;4.90;;
26484;SDS011;18083;50.560;7.262;2022-08-21T01:15:22;8.70;;;6.12;;
26484;SDS011;18083;50.560;7.262;2022-08-21T01:17:50;5.90;;;4.60;;
26484;SDS011;18083;50.560;7.262;2022-08-21T01:20:18;10.58;;;5.95;;
26484;SDS011;18083;50.560;7.262;2022-08-21T01:22:45;10.08;;;5.50;;
26484;SDS011;18083;50.560;7.262;2022-08-21T01:25:18;8.75;;;4.58;;
26484;SDS011;18083;50.560;7.262;2022-08-21T01:27:42;7.37;;;5.10;;
26484;SDS011;18083;50.560;7.262;2022-08-21T01:30:11;9.40;;;4.60;;
26484;SDS011;18083;50.560;7.262;2022-08-21T01:32:38;9.88;;;5.17;;
26484;SDS011;18083;50.560;7.262;2022-08-21T01:35:06;10.90;;;5.37;;
26484;SDS011;18083;50.560;7.262;2022-08-21T01:37:34;7.28;;;5.30;;
26484;SDS011;18083;50.560;7.262;2022-08-21T01:40:02;9.65;;;5.60;;
26484;SDS011;18083;50.560;7.262;2022-08-21T01:42:30;11.88;;;5.78;;
26484;SDS011;18083;50.560;7.262;2022-08-21T01:44:57;8.03;;;4.58;;
26484;SDS011;18083;50.560;7.262;2022-08-21T01:47:25;8.23;;;4.72;;
26484;SDS011;18083;50.560;7.262;2022-08-21T01:49:52;9.03;;;5.58;;
26484;SDS011;18083;50.560;7.262;2022-08-21T01:52:19;8.23;;;4.53;;
26484;SDS011;18083;50.560;7.262;2022-08-21T01:54:47;8.80;;;5.55;;
26484;SDS011;18083;50.560;7.262;2022-08-21T01:57:14;10.48;;;5.42;;
26484;SDS011;18083;50.560;7.262;2022-08-21T01:59:41;13.00;;;4.90;;
26484;SDS011;18083;50.560;7.262;2022-08-21T02:02:09;7.53;;;5.10;;
26484;SDS011;18083;50.560;7.262;2022-08-21T02:04:36;9.65;;;6.40;;
26484;SDS011;18083;50.560;7.262;2022-08-21T02:07:03;9.45;;;5.45;;
26484;SDS011;18083;50.560;7.262;2022-08-21T02:09:31;9.40;;;5.95;;
26484;SDS011;18083;50.560;7.262;2022-08-21T02:11:58;8.83;;;5.65;;
26484;SDS011;18083;50.560;7.262;2022-08-21T02:14:26;7.78;;;4.97;;
26484;SDS011;18083;50.560;7.262;2022-08-21T02:16:53;8.85;;;5.40;;
26484;SDS011;18083;50.560;7.262;2022-08-21T02:19:20;12.45;;;5.60;;
26484;SDS011;18083;50.560;7.262;2022-08-21T02:21:48;7.15;;;5.12;;
26484;SDS011;18083;50.560;7.262;2022-08-21T02:24:15;7.80;;;4.85;;
26484;SDS011;18083;50.560;7.262;2022-08-21T02:26:42;10.23;;;5.37;;
26484;SDS011;18083;50.560;7.262;2022-08-21T02:29:10;7.33;;;5.28;;
26484;SDS011;18083;50.560;7.262;2022-08-21T02:31:37;6.72;;;5.40;;
26484;SDS011;18083;50.560;7.262;2022-08-21T02:34:04;9.58;;;5.72;;
26484;SDS011;18083;50.560;7.262;2022-08-21T02:36:32;5.90;;;5.03;;
26484;SDS011;18083;50.560;7.262;2022-08-21T02:38:59;8.43;;;5.55;;
26484;SDS011;18083;50.560;7.262;2022-08-21T02:41:26;11.75;;;5.35;;
26484;SDS011;18083;50.560;7.262;2022-08-21T02:43:54;11.48;;;5.83;;
26484;SDS011;18083;50.560;7.262;2022-08-21T02:46:21;8.28;;;5.12;;
26484;SDS011;18083;50.560;7.262;2022-08-21T02:48:49;7.50;;;6.40;;
26484;SDS011;18083;50.560;7.262;2022-08-21T02:51:18;10.32;;;5.90;;
26484;SDS011;18083;50.560;7.262;2022-08-21T02:53:46;10.70;;;5.95;;
26484;SDS011;18083;50.560;7.262;2022-08-21T02:56:15;6.75;;;5.70;;
26484;SDS011;18083;50.560;7.262;2022-08-21T02:58:44;10.05;;;6.50;;
26484;SDS011;18083;50.560;7.262;2022-08-21T03:01:11;8.05;;;5.05;;
26484;SDS011;18083;50.560;7.262;2022-08-21T03:03:40;13.00;;;6.55;;
26484;SDS011;18083;50.560;7.262;2022-08-21T03:06:08;10.53;;;6.08;;
26484;SDS011;18083;50.560;7.262;2022-08-21T03:08:36;8.85;;;6.25;;
26484;SDS011;18083;50.560;7.262;2022-08-21T03:11:04;6.00;;;5.40;;
26484;SDS011;18083;50.560;7.262;2022-08-21T03:13:31;9.90;;;5.58;;
26484;SDS011;18083;50.560;7.262;2022-08-21T03:15:59;8.00;;;5.87;;
26484;SDS011;18083;50.560;7.262;2022-08-21T03:18:26;11.45;;;6.42;;
26484;SDS011;18083;50.560;7.262;2022-08-21T03:20:53;8.88;;;5.65;;
26484;SDS011;18083;50.560;7.262;2022-08-21T03:23:21;9.18;;;4.78;;
26484;SDS011;18083;50.560;7.262;2022-08-21T03:25:49;9.03;;;6.47;;
26484;SDS011;18083;50.560;7.262;2022-08-21T03:28:19;8.80;;;5.80;;
26484;SDS011;18083;50.560;7.262;2022-08-21T03:30:46;10.20;;;5.80;;
26484;SDS011;18083;50.560;7.262;2022-08-21T03:33:14;9.10;;;5.78;;
26484;SDS011;18083;50.560;7.262;2022-08-21T03:35:43;10.18;;;6.10;;
26484;SDS011;18083;50.560;7.262;2022-08-21T03:38:11;9.53;;;6.35;;
26484;SDS011;18083;50.560;7.262;2022-08-21T03:40:42;16.52;;;6.50;;
26484;SDS011;18083;50.560;7.262;2022-08-21T03:43:09;9.03;;;5.03;;
26484;SDS011;18083;50.560;7.262;2022-08-21T03:45:38;8.65;;;5.50;;
26484;SDS011;18083;50.560;7.262;2022-08-21T03:48:06;8.93;;;5.65;;
26484;SDS011;18083;50.560;7.262;2022-08-21T03:50:35;9.30;;;6.65;;
26484;SDS011;18083;50.560;7.262;2022-08-21T03:53:03;10.85;;;5.85;;
26484;SDS011;18083;50.560;7.262;2022-08-21T03:55:30;7.45;;;5.78;;
26484;SDS011;18083;50.560;7.262;2022-08-21T03:57:57;10.23;;;5.75;;
26484;SDS011;18083;50.560;7.262;2022-08-21T04:00:25;9.45;;;5.60;;
26484;SDS011;18083;50.560;7.262;2022-08-21T04:02:52;11.08;;;5.92;;
26484;SDS011;18083;50.560;7.262;2022-08-21T04:05:20;8.20;;;5.90;;
26484;SDS011;18083;50.560;7.262;2022-08-21T04:07:55;6.08;;;5.55;;
26484;SDS011;18083;50.560;7.262;2022-08-21T04:10:23;8.55;;;6.05;;
26484;SDS011;18083;50.560;7.262;2022-08-21T04:12:51;8.83;;;6.35;;
26484;SDS011;18083;50.560;7.262;2022-08-21T04:15:20;7.85;;;6.05;;
26484;SDS011;18083;50.560;7.262;2022-08-21T04:17:47;9.68;;;6.53;;
26484;SDS011;18083;50.560;7.262;2022-08-21T04:20:15;8.93;;;5.47;;
26484;SDS011;18083;50.560;7.262;2022-08-21T04:22:43;10.45;;;5.85;;
26484;SDS011;18083;50.560;7.262;2022-08-21T04:25:11;7.92;;;5.70;;
26484;SDS011;18083;50.560;7.262;2022-08-21T04:27:38;8.75;;;6.70;;
26484;SDS011;18083;50.560;7.262;2022-08-21T04:30:08;6.33;;;5.60;;
26484;SDS011;18083;50.560;7.262;2022-08-21T04:32:37;10.38;;;6.92;;
26484;SDS011;18083;50.560;7.262;2022-08-21T04:35:07;8.45;;;6.17;;
26484;SDS011;18083;50.560;7.262;2022-08-21T04:37:33;14.38;;;6.25;;
26484;SDS011;18083;50.560;7.262;2022-08-21T04:40:01;10.30;;;6.35;;
26484;SDS011;18083;50.560;7.262;2022-08-21T04:42:28;11.50;;;6.40;;
26484;SDS011;18083;50.560;7.262;2022-08-21T04:44:55;13.65;;;6.50;;
26484;SDS011;18083;50.560;7.262;2022-08-21T04:47:24;8.05;;;5.75;;
26484;SDS011;18083;50.560;7.262;2022-08-21T04:49:51;7.53;;;5.25;;
26484;SDS011;18083;50.560;7.262;2022-08-21T04:52:20;8.95;;;6.20;;
26484;SDS011;18083;50.560;7.262;2022-08-21T04:54:48;7.72;;;6.92;;
26484;SDS011;18083;50.560;7.262;2022-08-21T04:57:18;9.23;;;5.10;;
26484;SDS011;18083;50.560;7.262;2022-08-21T04:59:47;8.73;;;6.10;;
26484;SDS011;18083;50.560;7.262;2022-08-21T05:02:14;11.80;;;6.08;;
26484;SDS011;18083;50.560;7.262;2022-08-21T05:04:43;8.68;;;5.40;;
26484;SDS011;18083;50.560;7.262;2022-08-21T05:07:12;7.08;;;5.47;;
26484;SDS011;18083;50.560;7.262;2022-08-21T05:09:40;10.93;;;6.30;;
26484;SDS011;18083;50.560;7.262;2022-08-21T05:12:08;9.78;;;6.37;;
26484;SDS011;18083;50.560;7.262;2022-08-21T05:14:36;11.35;;;6.20;;
26484;SDS011;18083;50.560;7.262;2022-08-21T05:17:04;10.25;;;6.60;;
26484;SDS011;18083;50.560;7.262;2022-08-21T05:19:31;9.15;;;6.28;;
26484;SDS011;18083;50.560;7.262;2022-08-21T05:21:58;9.20;;;5.58;;
26484;SDS011;18083;50.560;7.262;2022-08-21T05:24:27;11.73;;;5.75;;
26484;SDS011;18083;50.560;7.262;2022-08-21T05:26:54;8.83;;;6.47;;
26484;SDS011;18083;50.560;7.262;2022-08-21T05:29:22;14.78;;;6.45;;
26484;SDS011;18083;50.560;7.262;2022-08-21T05:31:49;11.75;;;5.55;;
26484;SDS011;18083;50.560;7.262;2022-08-21T05:34:21;15.95;;;6.58;;
26484;SDS011;18083;50.560;7.262;2022-08-21T05:36:49;9.38;;;7.05;;
26484;SDS011;18083;50.560;7.262;2022-08-21T05:39:16;9.98;;;6.67;;
26484;SDS011;18083;50.560;7.262;2022-08-21T05:41:44;13.20;;;6.65;;
26484;SDS011;18083;50.560;7.262;2022-08-21T05:44:11;11.40;;;6.70;;
26484;SDS011;18083;50.560;7.262;2022-08-21T05:46:38;12.58;;;6.65;;
26484;SDS011;18083;50.560;7.262;2022-08-21T05:49:06;9.50;;;6.45;;
26484;SDS011;18083;50.560;7.262;2022-08-21T05:51:33;11.28;;;6.72;;
26484;SDS011;18083;50.560;7.262;2022-08-21T05:54:01;6.72;;;5.58;;
26484;SDS011;18083;50.560;7.262;2022-08-21T05:56:28;7.95;;;6.47;;
26484;SDS011;18083;50.560;7.262;2022-08-21T05:58:56;9.43;;;7.90;;
26484;SDS011;18083;50.560;7.262;2022-08-21T06:01:24;8.68;;;6.62;;
26484;SDS011;18083;50.560;7.262;2022-08-21T06:03:51;10.80;;;6.37;;
26484;SDS011;18083;50.560;7.262;2022-08-21T06:06:18;15.75;;;7.50;;
26484;SDS011;18083;50.560;7.262;2022-08-21T06:08:46;7.78;;;6.50;;
26484;SDS011;18083;50.560;7.262;2022-08-21T06:11:13;14.53;;;6.72;;
26484;SDS011;18083;50.560;7.262;2022-08-21T06:13:40;7.60;;;6.40;;
26484;SDS011;18083;50.560;7.262;2022-08-21T06:16:09;7.97;;;7.05;;
26484;SDS011;18083;50.560;7.262;2022-08-21T06:18:38;8.73;;;6.97;;
26484;SDS011;18083;50.560;7.262;2022-08-21T06:21:05;10.78;;;7.55;;
26484;SDS011;18083;50.560;7.262;2022-08-21T06:23:33;8.08;;;7.20;;
26484;SDS011;18083;50.560;7.262;2022-08-21T06:26:02;11.25;;;8.48;;
26484;SDS011;18083;50.560;7.262;2022-08-21T06:28:30;12.28;;;8.53;;
26484;SDS011;18083;50.560;7.262;2022-08-21T06:30:58;12.73;;;8.28;;
26484;SDS011;18083;50.560;7.262;2022-08-21T06:33:25;11.10;;;8.18;;
26484;SDS011;18083;50.560;7.262;2022-08-21T06:35:53;12.37;;;7.72;;
26484;SDS011;18083;50.560;7.262;2022-08-21T06:38:20;11.68;;;6.87;;
26484;SDS011;18083;50.560;7.262;2022-08-21T06:40:47;12.70;;;7.62;;
26484;SDS011;18083;50.560;7.262;2022-08-21T06:43:15;10.23;;;7.47;;
26484;SDS011;18083;50.560;7.262;2022-08-21T06:45:43;10.35;;;7.15;;
26484;SDS011;18083;50.560;7.262;2022-08-21T06:48:11;18.50;;;7.30;;
26484;SDS011;18083;50.560;7.262;2022-08-21T06:50:38;12.20;;;7.33;;
26484;SDS011;18083;50.560;7.262;2022-08-21T06:53:11;10.55;;;7.22;;
26484;SDS011;18083;50.560;7.262;2022-08-21T06:55:34;9.50;;;6.80;;
26484;SDS011;18083;50.560;7.262;2022-08-21T06:58:02;15.65;;;7.62;;
26484;SDS011;18083;50.560;7.262;2022-08-21T07:00:30;9.68;;;6.65;;
26484;SDS011;18083;50.560;7.262;2022-08-21T07:02:58;11.48;;;7.33;;
26484;SDS011;18083;50.560;7.262;2022-08-21T07:05:26;7.45;;;5.85;;
26484;SDS011;18083;50.560;7.262;2022-08-21T07:07:53;15.05;;;6.87;;
26484;SDS011;18083;50.560;7.262;2022-08-21T07:10:21;9.38;;;5.90;;
26484;SDS011;18083;50.560;7.262;2022-08-21T07:12:49;8.63;;;6.87;;
26484;SDS011;18083;50.560;7.262;2022-08-21T07:15:16;8.40;;;6.97;;
26484;SDS011;18083;50.560;7.262;2022-08-21T07:17:44;9.03;;;6.45;;
26484;SDS011;18083;50.560;7.262;2022-08-21T07:20:11;10.10;;;6.62;;
26484;SDS011;18083;50.560;7.262;2022-08-21T07:22:39;9.48;;;5.47;;
26484;SDS011;18083;50.560;7.262;2022-08-21T07:25:07;8.10;;;5.25;;
26484;SDS011;18083;50.560;7.262;2022-08-21T07:27:34;10.48;;;5.78;;
26484;SDS011;18083;50.560;7.262;2022-08-21T07:30:03;7.45;;;5.65;;
26484;SDS011;18083;50.560;7.262;2022-08-21T07:32:30;11.28;;;6.03;;
26484;SDS011;18083;50.560;7.262;2022-08-21T07:34:57;8.90;;;5.92;;
26484;SDS011;18083;50.560;7.262;2022-08-21T07:37:25;8.60;;;5.70;;
26484;SDS011;18083;50.560;7.262;2022-08-21T07:39:52;12.40;;;6.05;;
26484;SDS011;18083;50.560;7.262;2022-08-21T07:42:20;10.48;;;6.20;;
26484;SDS011;18083;50.560;7.262;2022-08-21T07:44:47;13.35;;;6.30;;
26484;SDS011;18083;50.560;7.262;2022-08-21T07:47:14;10.25;;;6.35;;
26484;SDS011;18083;50.560;7.262;2022-08-21T07:49:42;10.90;;;5.80;;
26484;SDS011;18083;50.560;7.262;2022-08-21T07:52:09;13.95;;;6.50;;
26484;SDS011;18083;50.560;7.262;2022-08-21T07:54:36;9.63;;;5.50;;
26484;SDS011;18083;50.560;7.262;2022-08-21T07:57:04;12.23;;;6.30;;
26484;SDS011;18083;50.560;7.262;2022-08-21T07:59:31;14.58;;;6.58;;
26484;SDS011;18083;50.560;7.262;2022-08-21T08:01:58;13.60;;;5.53;;
26484;SDS011;18083;50.560;7.262;2022-08-21T08:04:26;18.90;;;6.28;;
26484;SDS011;18083;50.560;7.262;2022-08-21T08:06:53;13.32;;;6.58;;
26484;SDS011;18083;50.560;7.262;2022-08-21T08:09:20;10.63;;;6.90;;
26484;SDS011;18083;50.560;7.262;2022-08-21T08:11:48;10.10;;;7.50;;
26484;SDS011;18083;50.560;7.262;2022-08-21T08:14:15;10.08;;;6.30;;
26484;SDS011;18083;50.560;7.262;2022-08-21T08:16:43;10.43;;;7.10;;
26484;SDS011;18083;50.560;7.262;2022-08-21T08:19:11;8.70;;;6.55;;
26484;SDS011;18083;50.560;7.262;2022-08-21T08:21:38;13.72;;;7.37;;
26484;SDS011;18083;50.560;7.262;2022-08-21T08:24:05;13.80;;;8.60;;
26484;SDS011;18083;50.560;7.262;2022-08-21T08:26:33;11.05;;;6.97;;
26484;SDS011;18083;50.560;7.262;2022-08-21T08:29:00;11.10;;;7.30;;
26484;SDS011;18083;50.560;7.262;2022-08-21T08:31:27;17.95;;;8.13;;
26484;SDS011;18083;50.560;7.262;2022-08-21T08:33:55;14.95;;;6.92;;
26484;SDS011;18083;50.560;7.262;2022-08-21T08:36:30;10.23;;;7.65;;
26484;SDS011;18083;50.560;7.262;2022-08-21T08:38:51;15.93;;;7.80;;
26484;SDS011;18083;50.560;7.262;2022-08-21T08:41:19;12.37;;;7.53;;
26484;SDS011;18083;50.560;7.262;2022-08-21T08:43:52;12.15;;;7.10;;
26484;SDS011;18083;50.560;7.262;2022-08-21T08:46:25;14.58;;;6.53;;
26484;SDS011;18083;50.560;7.262;2022-08-21T08:51:23;14.33;;;6.20;;
26484;SDS011;18083;50.560;7.262;2022-08-21T08:53:51;14.45;;;7.53;;
26484;SDS011;18083;50.560;7.262;2022-08-21T08:56:21;8.33;;;5.15;;
26484;SDS011;18083;50.560;7.262;2022-08-21T08:58:49;9.10;;;4.80;;
26484;SDS011;18083;50.560;7.262;2022-08-21T09:01:18;8.35;;;4.90;;
26484;SDS011;18083;50.560;7.262;2022-08-21T09:03:46;11.53;;;4.37;;
26484;SDS011;18083;50.560;7.262;2022-08-21T09:06:25;15.45;;;4.17;;
26484;SDS011;18083;50.560;7.262;2022-08-21T09:08:54;6.83;;;3.05;;
26484;SDS011;18083;50.560;7.262;2022-08-21T09:11:25;8.48;;;3.02;;
26484;SDS011;18083;50.560;7.262;2022-08-21T09:14:13;5.37;;;3.37;;
26484;SDS011;18083;50.560;7.262;2022-08-21T09:19:16;7.90;;;3.35;;
26484;SDS011;18083;50.560;7.262;2022-08-21T09:27:10;5.62;;;2.55;;
26484;SDS011;18083;50.560;7.262;2022-08-21T09:29:40;6.97;;;3.02;;
26484;SDS011;18083;50.560;7.262;2022-08-21T09:40:20;7.35;;;3.42;;
26484;SDS011;18083;50.560;7.262;2022-08-21T09:42:52;7.25;;;2.60;;
26484;SDS011;18083;50.560;7.262;2022-08-21T09:45:15;7.62;;;2.90;;
26484;SDS011;18083;50.560;7.262;2022-08-21T09:47:42;4.05;;;2.30;;
26484;SDS011;18083;50.560;7.262;2022-08-21T09:50:22;6.20;;;2.47;;
26484;SDS011;18083;50.560;7.262;2022-08-21T09:52:53;6.92;;;2.75;;
26484;SDS011;18083;50.560;7.262;2022-08-21T09:55:20;3.75;;;2.45;;
26484;SDS011;18083;50.560;7.262;2022-08-21T09:58:05;3.87;;;2.58;;
26484;SDS011;18083;50.560;7.262;2022-08-21T10:00:33;4.67;;;2.22;;
26484;SDS011;18083;50.560;7.262;2022-08-21T10:03:07;4.33;;;2.15;;
26484;SDS011;18083;50.560;7.262;2022-08-21T10:05:35;5.05;;;2.12;;
26484;SDS011;18083;50.560;7.262;2022-08-21T10:08:03;5.87;;;2.70;;
26484;SDS011;18083;50.560;7.262;2022-08-21T10:10:32;3.35;;;2.10;;
26484;SDS011;18083;50.560;7.262;2022-08-21T10:13:06;8.58;;;3.45;;
26484;SDS011;18083;50.560;7.262;2022-08-21T10:18:22;5.90;;;3.05;;
26484;SDS011;18083;50.560;7.262;2022-08-21T10:23:16;5.50;;;2.40;;
26484;SDS011;18083;50.560;7.262;2022-08-21T10:28:31;9.88;;;2.65;;
26484;SDS011;18083;50.560;7.262;2022-08-21T10:31:07;4.15;;;2.00;;
26484;SDS011;18083;50.560;7.262;2022-08-21T10:41:07;5.65;;;2.58;;
26484;SDS011;18083;50.560;7.262;2022-08-21T10:43:39;5.83;;;2.10;;
26484;SDS011;18083;50.560;7.262;2022-08-21T10:48:36;4.17;;;2.20;;
26484;SDS011;18083;50.560;7.262;2022-08-21T10:51:27;3.92;;;2.00;;
26484;SDS011;18083;50.560;7.262;2022-08-21T10:56:35;2.70;;;1.92;;
26484;SDS011;18083;50.560;7.262;2022-08-21T11:01:50;6.92;;;2.12;;
26484;SDS011;18083;50.560;7.262;2022-08-21T11:04:23;7.67;;;2.20;;
26484;SDS011;18083;50.560;7.262;2022-08-21T11:06:51;2.62;;;1.60;;
26484;SDS011;18083;50.560;7.262;2022-08-21T11:09:18;7.87;;;2.27;;
26484;SDS011;18083;50.560;7.262;2022-08-21T11:11:56;6.30;;;2.33;;
26484;SDS011;18083;50.560;7.262;2022-08-21T11:16:56;5.58;;;2.45;;
26484;SDS011;18083;50.560;7.262;2022-08-21T11:19:24;4.30;;;2.15;;
26484;SDS011;18083;50.560;7.262;2022-08-21T11:21:58;5.80;;;2.40;;
26484;SDS011;18083;50.560;7.262;2022-08-21T11:24:38;7.12;;;2.08;;
26484;SDS011;18083;50.560;7.262;2022-08-21T11:27:03;7.78;;;2.30;;
26484;SDS011;18083;50.560;7.262;2022-08-21T11:29:31;4.67;;;1.85;;
26484;SDS011;18083;50.560;7.262;2022-08-21T11:37:23;4.15;;;1.80;;
26484;SDS011;18083;50.560;7.262;2022-08-21T11:40:03;2.90;;;1.62;;
26484;SDS011;18083;50.560;7.262;2022-08-21T11:45:10;5.85;;;1.98;;
26484;SDS011;18083;50.560;7.262;2022-08-21T11:47:33;6.53;;;2.15;;
26484;SDS011;18083;50.560;7.262;2022-08-21T11:50:11;5.35;;;1.80;;
26484;SDS011;18083;50.560;7.262;2022-08-21T11:55:08;2.62;;;1.77;;
26484;SDS011;18083;50.560;7.262;2022-08-21T11:57:38;5.25;;;1.62;;
26484;SDS011;18083;50.560;7.262;2022-08-21T12:00:11;3.67;;;2.37;;
26484;SDS011;18083;50.560;7.262;2022-08-21T12:02:39;5.00;;;1.90;;
26484;SDS011;18083;50.560;7.262;2022-08-21T12:05:11;2.42;;;1.98;;
26484;SDS011;18083;50.560;7.262;2022-08-21T12:07:42;4.95;;;1.90;;
26484;SDS011;18083;50.560;7.262;2022-08-21T12:10:11;2.85;;;1.80;;
26484;SDS011;18083;50.560;7.262;2022-08-21T12:12:39;3.35;;;1.57;;
26484;SDS011;18083;50.560;7.262;2022-08-21T12:15:23;3.77;;;2.05;;
26484;SDS011;18083;50.560;7.262;2022-08-21T12:17:50;4.25;;;1.90;;
26484;SDS011;18083;50.560;7.262;2022-08-21T12:20:32;6.47;;;2.47;;
26484;SDS011;18083;50.560;7.262;2022-08-21T12:23:01;4.33;;;1.90;;
26484;SDS011;18083;50.560;7.262;2022-08-21T12:25:23;4.92;;;2.67;;
26484;SDS011;18083;50.560;7.262;2022-08-21T12:27:51;4.45;;;1.82;;
26484;SDS011;18083;50.560;7.262;2022-08-21T12:30:21;5.17;;;2.17;;
26484;SDS011;18083;50.560;7.262;2022-08-21T12:32:54;3.27;;;1.77;;
26484;SDS011;18083;50.560;7.262;2022-08-21T12:35:17;4.25;;;1.67;;
26484;SDS011;18083;50.560;7.262;2022-08-21T12:37:47;3.62;;;1.60;;
26484;SDS011;18083;50.560;7.262;2022-08-21T12:40:23;2.70;;;1.62;;
26484;SDS011;18083;50.560;7.262;2022-08-21T12:42:50;4.28;;;1.90;;
26484;SDS011;18083;50.560;7.262;2022-08-21T12:45:20;3.40;;;1.75;;
26484;SDS011;18083;50.560;7.262;2022-08-21T12:47:56;2.80;;;1.75;;
26484;SDS011;18083;50.560;7.262;2022-08-21T12:50:41;7.78;;;1.90;;
26484;SDS011;18083;50.560;7.262;2022-08-21T12:52:59;4.78;;;1.80;;
26484;SDS011;18083;50.560;7.262;2022-08-21T12:55:30;5.12;;;2.47;;
26484;SDS011;18083;50.560;7.262;2022-08-21T12:57:56;2.22;;;1.45;;
26484;SDS011;18083;50.560;7.262;2022-08-21T13:00:24;4.28;;;2.08;;
26484;SDS011;18083;50.560;7.262;2022-08-21T13:02:53;4.40;;;1.75;;
26484;SDS011;18083;50.560;7.262;2022-08-21T13:05:34;4.17;;;2.20;;
26484;SDS011;18083;50.560;7.262;2022-08-21T13:08:05;3.85;;;1.95;;
26484;SDS011;18083;50.560;7.262;2022-08-21T13:10:34;2.65;;;1.35;;
26484;SDS011;18083;50.560;7.262;2022-08-21T13:13:06;6.28;;;1.50;;
26484;SDS011;18083;50.560;7.262;2022-08-21T13:15:35;3.75;;;2.30;;
26484;SDS011;18083;50.560;7.262;2022-08-21T13:18:03;4.12;;;1.75;;
26484;SDS011;18083;50.560;7.262;2022-08-21T13:20:32;3.05;;;1.60;;
26484;SDS011;18083;50.560;7.262;2022-08-21T13:23:01;2.77;;;1.75;;
26484;SDS011;18083;50.560;7.262;2022-08-21T13:25:30;2.15;;;1.70;;
26484;SDS011;18083;50.560;7.262;2022-08-21T13:27:59;5.55;;;1.55;;
26484;SDS011;18083;50.560;7.262;2022-08-21T13:30:27;3.02;;;1.55;;
26484;SDS011;18083;50.560;7.262;2022-08-21T13:32:56;5.28;;;1.80;;
26484;SDS011;18083;50.560;7.262;2022-08-21T13:38:08;4.12;;;1.72;;
26484;SDS011;18083;50.560;7.262;2022-08-21T13:40:40;4.15;;;1.90;;
26484;SDS011;18083;50.560;7.262;2022-08-21T13:43:11;3.70;;;1.82;;
26484;SDS011;18083;50.560;7.262;2022-08-21T13:45:42;1.90;;;1.62;;
26484;SDS011;18083;50.560;7.262;2022-08-21T13:48:08;3.10;;;1.60;;
26484;SDS011;18083;50.560;7.262;2022-08-21T13:50:36;2.95;;;1.40;;
26484;SDS011;18083;50.560;7.262;2022-08-21T13:53:05;4.42;;;1.72;;
26484;SDS011;18083;50.560;7.262;2022-08-21T13:55:43;2.98;;;1.50;;
26484;SDS011;18083;50.560;7.262;2022-08-21T13:58:08;5.25;;;1.98;;
26484;SDS011;18083;50.560;7.262;2022-08-21T14:00:51;3.50;;;1.72;;
26484;SDS011;18083;50.560;7.262;2022-08-21T14:03:36;6.85;;;2.40;;
26484;SDS011;18083;50.560;7.262;2022-08-21T14:06:10;3.02;;;1.70;;
26484;SDS011;18083;50.560;7.262;2022-08-21T14:08:35;2.83;;;2.00;;
26484;SDS011;18083;50.560;7.262;2022-08-21T14:11:04;1.98;;;1.67;;
26484;SDS011;18083;50.560;7.262;2022-08-21T14:13:39;2.58;;;1.87;;
26484;SDS011;18083;50.560;7.262;2022-08-21T14:16:15;3.87;;;1.85;;
26484;SDS011;18083;50.560;7.262;2022-08-21T14:18:45;2.98;;;1.45;;
26484;SDS011;18083;50.560;7.262;2022-08-21T14:21:13;4.30;;;2.08;;
26484;SDS011;18083;50.560;7.262;2022-08-21T14:23:42;2.58;;;1.45;;
26484;SDS011;18083;50.560;7.262;2022-08-21T14:26:09;3.47;;;1.40;;
26484;SDS011;18083;50.560;7.262;2022-08-21T14:28:40;1.77;;;1.40;;
26484;SDS011;18083;50.560;7.262;2022-08-21T14:31:12;4.00;;;1.45;;
26484;SDS011;18083;50.560;7.262;2022-08-21T14:33:40;4.85;;;2.02;;
26484;SDS011;18083;50.560;7.262;2022-08-21T14:36:07;4.37;;;1.52;;
26484;SDS011;18083;50.560;7.262;2022-08-21T14:38:35;6.33;;;2.12;;
26484;SDS011;18083;50.560;7.262;2022-08-21T14:41:04;4.10;;;1.50;;
26484;SDS011;18083;50.560;7.262;2022-08-21T14:43:32;2.65;;;1.50;;
26484;SDS011;18083;50.560;7.262;2022-08-21T14:45:59;2.40;;;1.40;;
26484;SDS011;18083;50.560;7.262;2022-08-21T14:48:27;4.03;;;1.52;;
26484;SDS011;18083;50.560;7.262;2022-08-21T14:50:54;6.50;;;2.05;;
26484;SDS011;18083;50.560;7.262;2022-08-21T14:53:22;1.92;;;1.27;;
26484;SDS011;18083;50.560;7.262;2022-08-21T14:55:50;2.77;;;1.90;;
26484;SDS011;18083;50.560;7.262;2022-08-21T14:58:38;3.75;;;1.98;;
26484;SDS011;18083;50.560;7.262;2022-08-21T15:01:01;3.25;;;1.45;;
26484;SDS011;18083;50.560;7.262;2022-08-21T15:03:31;2.02;;;1.65;;
26484;SDS011;18083;50.560;7.262;2022-08-21T15:05:58;4.35;;;1.50;;
26484;SDS011;18083;50.560;7.262;2022-08-21T15:08:25;4.17;;;1.95;;
26484;SDS011;18083;50.560;7.262;2022-08-21T15:10:53;5.15;;;1.95;;
26484;SDS011;18083;50.560;7.262;2022-08-21T15:13:21;2.27;;;1.47;;
26484;SDS011;18083;50.560;7.262;2022-08-21T15:15:49;3.25;;;1.80;;
26484;SDS011;18083;50.560;7.262;2022-08-21T15:18:24;2.50;;;1.65;;
26484;SDS011;18083;50.560;7.262;2022-08-21T15:20:47;3.35;;;1.45;;
26484;SDS011;18083;50.560;7.262;2022-08-21T15:23:15;4.30;;;1.70;;
26484;SDS011;18083;50.560;7.262;2022-08-21T15:25:43;4.58;;;1.50;;
26484;SDS011;18083;50.560;7.262;2022-08-21T15:28:11;4.78;;;1.60;;
26484;SDS011;18083;50.560;7.262;2022-08-21T15:30:39;4.92;;;1.65;;
26484;SDS011;18083;50.560;7.262;2022-08-21T15:33:07;1.70;;;1.60;;
26484;SDS011;18083;50.560;7.262;2022-08-21T15:35:35;7.87;;;2.12;;
26484;SDS011;18083;50.560;7.262;2022-08-21T15:38:02;4.45;;;1.72;;
26484;SDS011;18083;50.560;7.262;2022-08-21T15:40:29;2.60;;;1.82;;
26484;SDS011;18083;50.560;7.262;2022-08-21T15:42:58;4.00;;;1.62;;
26484;SDS011;18083;50.560;7.262;2022-08-21T15:45:26;5.05;;;1.75;;
26484;SDS011;18083;50.560;7.262;2022-08-21T15:47:53;3.33;;;1.50;;
26484;SDS011;18083;50.560;7.262;2022-08-21T15:50:22;3.22;;;1.80;;